Time;durP1;ratioP1;P1;durP2;ratioP2;P2;SDS_P1;SDS_P2;PMS_P1;PMS_P2;Temp;Humidity;BMP_temperature;BMP_pressure;BME280_temperature;BME280_humidity;BME280_pressure;Samples;Min_cycle;Max_cycle;Signal;HPM_P1;HPM_P2
2021/05/25 00:01:04;;;;;;;12.25;4.55;;;;;;;;;;5044136;28;20028;-53
2021/05/25 00:03:30;;;;;;;17.90;3.95;;;;;;;;;;5045412;28;20027;-54
2021/05/25 00:05:56;;;;;;;7.18;4.43;;;;;;;;;;5043952;28;20070;-52
2021/05/25 00:08:22;;;;;;;6.50;2.88;;;;;;;;;;5044214;28;20025;-54
2021/05/25 00:10:48;;;;;;;9.35;2.80;;;;;;;;;;5043630;28;20029;-53
2021/05/25 00:13:14;;;;;;;19.40;9.43;;;;;;;;;;5043932;28;20856;-53
2021/05/25 00:15:41;;;;;;;15.73;7.82;;;;;;;;;;5043941;28;20083;-54
2021/05/25 00:18:07;;;;;;;9.77;3.38;;;;;;;;;;5043568;28;20080;-52
2021/05/25 00:20:33;;;;;;;10.43;4.20;;;;;;;;;;5043616;28;20484;-52
2021/05/25 00:22:59;;;;;;;7.30;5.00;;;;;;;;;;5043801;28;20024;-53
2021/05/25 00:25:25;;;;;;;15.38;3.47;;;;;;;;;;5043643;28;20134;-53
2021/05/25 00:27:53;;;;;;;8.73;4.32;;;;;;;;;;5044792;28;20017;-54
2021/05/25 00:30:20;;;;;;;6.68;4.32;;;;;;;;;;5043548;28;20020;-54
2021/05/25 00:32:46;;;;;;;11.23;6.07;;;;;;;;;;5043601;28;20448;-54
2021/05/25 00:35:12;;;;;;;16.08;6.05;;;;;;;;;;5043681;28;20504;-52
2021/05/25 00:37:39;;;;;;;6.40;3.42;;;;;;;;;;5043407;28;20024;-53
2021/05/25 00:40:06;;;;;;;12.30;6.30;;;;;;;;;;5041937;28;20216;-50
2021/05/25 00:42:32;;;;;;;12.43;4.50;;;;;;;;;;5043324;28;20034;-52
2021/05/25 00:44:59;;;;;;;7.05;4.00;;;;;;;;;;5056582;28;20028;-52
2021/05/25 00:47:31;;;;;;;10.50;4.50;;;;;;;;;;5074013;28;20388;-52
2021/05/25 00:50:19;;;;;;;8.02;3.25;;;;;;;;;;5073745;28;20020;-51
2021/05/25 00:52:54;;;;;;;18.15;5.60;;;;;;;;;;5073205;28;20396;-53
2021/05/25 00:55:24;;;;;;;6.90;3.70;;;;;;;;;;5073916;28;20444;-51
2021/05/25 00:57:51;;;;;;;11.35;5.90;;;;;;;;;;5073703;28;20028;-54
2021/05/25 01:00:19;;;;;;;13.80;4.13;;;;;;;;;;5073657;28;20141;-53
2021/05/25 01:02:45;;;;;;;10.73;4.65;;;;;;;;;;5073558;28;20353;-52
2021/05/25 01:05:13;;;;;;;8.55;2.70;;;;;;;;;;5073418;28;20101;-53
2021/05/25 01:07:39;;;;;;;7.72;3.22;;;;;;;;;;5073453;28;20024;-53
2021/05/25 01:10:06;;;;;;;9.57;2.72;;;;;;;;;;5072681;28;20111;-53
2021/05/25 01:12:35;;;;;;;9.77;5.25;;;;;;;;;;5073375;28;20096;-52
2021/05/25 01:15:05;;;;;;;9.18;3.20;;;;;;;;;;5073365;28;20021;-52
2021/05/25 01:17:32;;;;;;;17.87;7.53;;;;;;;;;;5073468;28;20032;-58
2021/05/25 01:20:01;;;;;;;8.32;3.70;;;;;;;;;;5073235;28;20476;-50
2021/05/25 01:22:28;;;;;;;9.32;4.03;;;;;;;;;;5073635;28;20075;-52
2021/05/25 01:24:54;;;;;;;10.73;3.80;;;;;;;;;;5073372;28;20028;-53
2021/05/25 01:27:21;;;;;;;3.80;2.33;;;;;;;;;;5073137;28;20029;-53
2021/05/25 01:29:47;;;;;;;9.65;3.58;;;;;;;;;;5073184;28;20029;-53
2021/05/25 01:32:14;;;;;;;9.00;2.78;;;;;;;;;;5073375;28;20380;-52
2021/05/25 01:34:40;;;;;;;14.52;8.45;;;;;;;;;;5073122;28;20085;-51
2021/05/25 01:37:06;;;;;;;13.68;3.33;;;;;;;;;;5073237;28;20025;-52
2021/05/25 01:39:32;;;;;;;11.55;4.43;;;;;;;;;;5073130;28;20031;-52
2021/05/25 01:41:58;;;;;;;11.95;2.78;;;;;;;;;;5072956;28;20025;-53
2021/05/25 01:44:24;;;;;;;12.38;5.32;;;;;;;;;;5073039;28;20029;-53
2021/05/25 01:46:51;;;;;;;7.70;2.97;;;;;;;;;;5054805;28;20063;-53
2021/05/25 01:49:18;;;;;;;7.82;3.00;;;;;;;;;;5073084;28;20028;-53
2021/05/25 01:51:47;;;;;;;14.93;8.13;;;;;;;;;;5072720;28;20047;-52
2021/05/25 01:54:13;;;;;;;12.27;4.10;;;;;;;;;;5073215;28;20036;-53
2021/05/25 01:56:39;;;;;;;13.35;4.53;;;;;;;;;;5072936;28;20020;-53
2021/05/25 01:59:05;;;;;;;7.82;2.75;;;;;;;;;;5073243;28;20033;-57
2021/05/25 02:01:34;;;;;;;6.20;1.80;;;;;;;;;;5054807;28;20120;-55
2021/05/25 02:04:00;;;;;;;9.18;2.30;;;;;;;;;;5072876;28;20078;-57
2021/05/25 02:06:26;;;;;;;12.13;2.08;;;;;;;;;;5073011;28;20422;-56
2021/05/25 02:08:52;;;;;;;9.18;2.85;;;;;;;;;;5073005;28;20044;-55
2021/05/25 02:11:18;;;;;;;3.42;1.92;;;;;;;;;;5073015;28;20029;-56
2021/05/25 02:13:44;;;;;;;11.27;2.13;;;;;;;;;;5072962;28;20102;-55
2021/05/25 02:16:12;;;;;;;6.22;1.50;;;;;;;;;;5072885;28;20056;-55
2021/05/25 02:18:48;;;;;;;15.48;2.45;;;;;;;;;;5072885;28;20020;-57
2021/05/25 02:21:18;;;;;;;10.02;2.90;;;;;;;;;;5073312;28;20027;-54
2021/05/25 02:23:45;;;;;;;20.33;2.45;;;;;;;;;;5058806;28;20033;-55
2021/05/25 02:26:11;;;;;;;10.55;1.88;;;;;;;;;;5076681;28;20036;-54
2021/05/25 02:28:38;;;;;;;7.18;2.00;;;;;;;;;;5076512;28;20025;-55
2021/05/25 02:31:04;;;;;;;15.55;1.95;;;;;;;;;;5076609;28;20029;-56
2021/05/25 02:33:30;;;;;;;9.70;1.75;;;;;;;;;;5076450;28;20099;-55
2021/05/25 02:35:57;;;;;;;8.60;1.63;;;;;;;;;;5076446;28;20542;-54
2021/05/25 02:38:24;;;;;;;8.50;1.75;;;;;;;;;;5076438;28;20056;-55
2021/05/25 02:40:51;;;;;;;7.10;2.22;;;;;;;;;;5076651;28;20107;-54
2021/05/25 02:43:18;;;;;;;3.65;1.45;;;;;;;;;;5076460;28;20021;-55
2021/05/25 02:45:44;;;;;;;11.43;2.15;;;;;;;;;;5076342;28;20458;-56
2021/05/25 02:48:10;;;;;;;8.23;1.83;;;;;;;;;;5076235;28;20024;-55
2021/05/25 02:50:36;;;;;;;8.10;2.30;;;;;;;;;;5075991;28;20037;-54
2021/05/25 02:53:03;;;;;;;7.53;1.88;;;;;;;;;;5076588;28;20053;-56
2021/05/25 02:55:33;;;;;;;10.13;1.85;;;;;;;;;;5076234;28;20055;-55
2021/05/25 02:57:59;;;;;;;15.48;2.45;;;;;;;;;;5076164;28;20431;-57
2021/05/25 03:00:29;;;;;;;10.90;2.60;;;;;;;;;;5076076;28;20380;-55
2021/05/25 03:02:56;;;;;;;16.08;4.10;;;;;;;;;;5076024;28;20031;-56
2021/05/25 03:05:23;;;;;;;12.95;4.70;;;;;;;;;;5076018;28;20040;-56
2021/05/25 03:07:50;;;;;;;12.50;4.13;;;;;;;;;;5076207;28;20080;-56
2021/05/25 03:10:17;;;;;;;18.75;5.93;;;;;;;;;;5076127;28;20025;-55
2021/05/25 03:12:43;;;;;;;9.00;3.03;;;;;;;;;;5075901;28;20024;-57
2021/05/25 03:15:11;;;;;;;13.00;3.53;;;;;;;;;;5075889;28;20056;-56
2021/05/25 03:17:37;;;;;;;16.27;6.93;;;;;;;;;;5075771;28;20028;-57
2021/05/25 03:20:05;;;;;;;13.23;7.30;;;;;;;;;;5075802;28;20024;-56
2021/05/25 03:22:31;;;;;;;20.20;11.88;;;;;;;;;;5076120;28;20506;-56
2021/05/25 03:24:57;;;;;;;18.60;4.47;;;;;;;;;;5075711;28;20031;-56
2021/05/25 03:27:24;;;;;;;28.48;13.77;;;;;;;;;;5075700;28;20031;-55
2021/05/25 03:29:50;;;;;;;14.45;7.25;;;;;;;;;;5075844;28;20021;-56
2021/05/25 03:32:16;;;;;;;11.95;4.65;;;;;;;;;;5075250;28;20036;-56
2021/05/25 03:34:43;;;;;;;10.35;5.35;;;;;;;;;;5074665;28;20028;-55
2021/05/25 03:37:09;;;;;;;17.85;7.65;;;;;;;;;;5075261;28;20016;-56
2021/05/25 03:39:35;;;;;;;17.17;8.00;;;;;;;;;;5075139;28;20510;-57
2021/05/25 03:42:01;;;;;;;22.02;13.07;;;;;;;;;;5075256;28;20031;-57
2021/05/25 03:44:28;;;;;;;21.67;8.57;;;;;;;;;;5075158;28;20028;-56
2021/05/25 03:46:54;;;;;;;13.25;9.07;;;;;;;;;;5075145;28;20099;-56
2021/05/25 03:49:20;;;;;;;15.32;9.88;;;;;;;;;;5075291;28;20024;-56
2021/05/25 03:51:47;;;;;;;11.15;8.35;;;;;;;;;;5074851;28;20040;-57
2021/05/25 03:54:21;;;;;;;17.63;9.40;;;;;;;;;;5075052;28;20032;-57
2021/05/25 03:57:01;;;;;;;17.20;9.63;;;;;;;;;;5074776;28;20086;-58
2021/05/25 03:59:27;;;;;;;19.40;8.15;;;;;;;;;;5074842;28;20028;-59
2021/05/25 04:01:53;;;;;;;14.18;8.82;;;;;;;;;;5074966;28;20426;-56
2021/05/25 04:04:19;;;;;;;12.43;8.60;;;;;;;;;;5074708;28;20020;-57
2021/05/25 04:06:46;;;;;;;13.13;8.57;;;;;;;;;;5074945;28;20039;-57
2021/05/25 04:09:12;;;;;;;16.92;8.57;;;;;;;;;;5074785;28;20400;-57
2021/05/25 04:11:38;;;;;;;13.77;8.10;;;;;;;;;;5074803;28;20033;-57
2021/05/25 04:14:04;;;;;;;9.85;6.93;;;;;;;;;;5074452;28;20023;-58
2021/05/25 04:16:31;;;;;;;10.98;7.75;;;;;;;;;;5074800;28;20078;-56
2021/05/25 04:18:57;;;;;;;12.82;6.35;;;;;;;;;;5074658;28;20036;-57
2021/05/25 04:21:23;;;;;;;16.25;7.63;;;;;;;;;;5074443;28;20024;-57
2021/05/25 04:23:49;;;;;;;10.25;6.78;;;;;;;;;;5074515;28;20035;-56
2021/05/25 04:26:15;;;;;;;12.93;6.75;;;;;;;;;;5074346;28;20049;-58
2021/05/25 04:28:41;;;;;;;7.60;5.10;;;;;;;;;;5074385;28;20024;-57
2021/05/25 04:31:08;;;;;;;12.50;6.47;;;;;;;;;;5074068;28;20052;-58
2021/05/25 04:33:34;;;;;;;9.65;6.78;;;;;;;;;;5074160;28;20020;-55
2021/05/25 04:36:02;;;;;;;18.45;7.72;;;;;;;;;;5074293;28;20028;-59
2021/05/25 04:38:28;;;;;;;17.35;8.38;;;;;;;;;;5074165;28;20038;-56
2021/05/25 04:40:54;;;;;;;11.43;7.50;;;;;;;;;;5074060;28;20115;-55
2021/05/25 04:43:20;;;;;;;14.93;7.75;;;;;;;;;;5073937;28;20024;-58
2021/05/25 04:45:47;;;;;;;12.45;6.85;;;;;;;;;;5073561;28;20033;-58
2021/05/25 04:48:13;;;;;;;17.58;9.13;;;;;;;;;;5073920;28;20107;-58
2021/05/25 04:50:40;;;;;;;21.90;16.27;;;;;;;;;;5073531;28;20067;-57
2021/05/25 04:53:06;;;;;;;20.15;15.35;;;;;;;;;;5073702;28;20472;-57
2021/05/25 04:55:33;;;;;;;21.35;14.32;;;;;;;;;;5073882;28;20052;-57
2021/05/25 04:57:59;;;;;;;19.55;11.63;;;;;;;;;;5073598;28;20468;-55
2021/05/25 05:00:26;;;;;;;24.90;15.18;;;;;;;;;;5072742;28;20036;-56
2021/05/25 05:02:54;;;;;;;33.45;22.13;;;;;;;;;;5072214;28;20024;-55
2021/05/25 05:05:20;;;;;;;38.13;23.80;;;;;;;;;;5073266;28;20032;-56
2021/05/25 05:07:47;;;;;;;39.80;24.45;;;;;;;;;;5072960;28;20123;-56
2021/05/25 05:10:14;;;;;;;18.67;11.77;;;;;;;;;;5073082;28;20039;-57
2021/05/25 05:12:40;;;;;;;14.80;10.30;;;;;;;;;;5073596;28;20020;-60
2021/05/25 05:15:06;;;;;;;22.13;11.32;;;;;;;;;;5073465;28;20432;-60
2021/05/25 05:17:33;;;;;;;20.67;12.40;;;;;;;;;;5073543;28;20048;-58
2021/05/25 05:19:59;;;;;;;13.63;7.35;;;;;;;;;;5073179;28;20048;-58
2021/05/25 05:22:25;;;;;;;11.27;8.23;;;;;;;;;;5073406;28;20456;-57
2021/05/25 05:24:51;;;;;;;17.20;8.02;;;;;;;;;;5073418;28;20120;-56
2021/05/25 05:27:18;;;;;;;18.75;8.95;;;;;;;;;;5073326;28;20071;-56
2021/05/25 05:29:45;;;;;;;19.45;6.50;;;;;;;;;;5073273;28;20090;-54
2021/05/25 05:32:11;;;;;;;26.80;12.75;;;;;;;;;;5073383;28;20028;-55
2021/05/25 05:34:37;;;;;;;18.58;8.13;;;;;;;;;;5073304;28;20020;-56
2021/05/25 05:37:08;;;;;;;20.73;9.73;;;;;;;;;;5073516;28;20032;-54
2021/05/25 05:39:34;;;;;;;12.73;7.82;;;;;;;;;;5073280;28;20025;-56
2021/05/25 05:42:00;;;;;;;13.45;7.53;;;;;;;;;;5073222;28;20025;-55
2021/05/25 05:44:26;;;;;;;10.88;6.18;;;;;;;;;;5072811;28;20050;-56
2021/05/25 05:46:52;;;;;;;28.05;13.10;;;;;;;;;;5073216;28;20437;-55
2021/05/25 05:49:21;;;;;;;14.73;6.97;;;;;;;;;;5072965;28;20031;-56
2021/05/25 05:51:48;;;;;;;12.63;6.90;;;;;;;;;;5072737;28;20094;-56
2021/05/25 05:54:14;;;;;;;14.60;6.40;;;;;;;;;;5072987;28;20036;-56
2021/05/25 05:56:40;;;;;;;16.13;9.15;;;;;;;;;;5074381;28;20056;-56
2021/05/25 05:59:06;;;;;;;23.95;11.07;;;;;;;;;;5076963;28;20028;-56
2021/05/25 06:01:32;;;;;;;17.02;10.93;;;;;;;;;;5077107;28;20468;-55
2021/05/25 06:03:58;;;;;;;13.57;7.30;;;;;;;;;;5076593;28;20035;-55
2021/05/25 06:06:24;;;;;;;32.33;19.25;;;;;;;;;;5076852;28;20025;-56
2021/05/25 06:08:50;;;;;;;27.73;15.38;;;;;;;;;;5076912;28;20100;-56
2021/05/25 06:11:17;;;;;;;17.77;10.02;;;;;;;;;;5076847;28;20403;-55
2021/05/25 06:13:43;;;;;;;22.65;10.40;;;;;;;;;;5076660;28;20021;-56
2021/05/25 06:16:09;;;;;;;14.75;8.55;;;;;;;;;;5076760;28;20492;-56
2021/05/25 06:18:36;;;;;;;27.38;15.40;;;;;;;;;;5076774;28;20112;-57
2021/05/25 06:21:03;;;;;;;37.35;21.65;;;;;;;;;;5076497;28;20115;-56
2021/05/25 06:23:29;;;;;;;46.25;30.20;;;;;;;;;;5076816;28;20029;-55
2021/05/25 06:25:56;;;;;;;52.58;32.28;;;;;;;;;;5058651;28;20048;-56
2021/05/25 06:28:25;;;;;;;15.88;8.20;;;;;;;;;;5076501;28;20107;-55
2021/05/25 06:30:51;;;;;;;21.40;13.20;;;;;;;;;;5076646;28;20513;-55
2021/05/25 06:33:17;;;;;;;137.75;84.97;;;;;;;;;;5076459;28;20028;-55
2021/05/25 06:35:43;;;;;;;22.05;11.40;;;;;;;;;;5076391;28;20357;-56
2021/05/25 06:38:09;;;;;;;69.88;43.20;;;;;;;;;;5076400;28;20017;-56
2021/05/25 06:40:36;;;;;;;25.17;14.95;;;;;;;;;;5058482;28;20127;-56
2021/05/25 06:43:02;;;;;;;13.73;8.13;;;;;;;;;;5076378;28;20027;-56
2021/05/25 06:45:28;;;;;;;12.65;6.97;;;;;;;;;;5076139;28;20024;-56
2021/05/25 06:47:54;;;;;;;17.25;9.65;;;;;;;;;;5076140;28;20033;-56
2021/05/25 06:50:20;;;;;;;14.75;9.43;;;;;;;;;;5075963;28;20031;-56
2021/05/25 06:52:46;;;;;;;12.20;8.23;;;;;;;;;;5076060;28;20028;-56
2021/05/25 06:55:13;;;;;;;8.95;5.00;;;;;;;;;;5076150;28;20025;-57
2021/05/25 06:57:41;;;;;;;17.17;6.25;;;;;;;;;;5058005;28;20055;-56
2021/05/25 07:00:09;;;;;;;21.23;11.75;;;;;;;;;;5075846;28;20076;-56
2021/05/25 07:02:38;;;;;;;33.67;21.55;;;;;;;;;;5075951;28;20012;-56
2021/05/25 07:05:04;;;;;;;35.13;21.65;;;;;;;;;;5075796;28;20036;-56
2021/05/25 07:07:30;;;;;;;23.55;13.32;;;;;;;;;;5075756;28;20025;-56
2021/05/25 07:09:57;;;;;;;16.48;8.63;;;;;;;;;;5075915;28;20399;-56
2021/05/25 07:12:23;;;;;;;19.15;10.32;;;;;;;;;;5075787;28;20029;-56
2021/05/25 07:14:49;;;;;;;24.15;10.68;;;;;;;;;;5075533;28;20024;-56
2021/05/25 07:17:15;;;;;;;26.10;16.65;;;;;;;;;;5075852;28;20029;-55
2021/05/25 07:19:41;;;;;;;17.25;9.20;;;;;;;;;;5075638;28;20472;-55
2021/05/25 07:22:07;;;;;;;13.88;8.68;;;;;;;;;;5075368;28;20021;-56
2021/05/25 07:24:34;;;;;;;18.85;9.02;;;;;;;;;;5075772;28;20070;-56
2021/05/25 07:27:00;;;;;;;24.77;13.25;;;;;;;;;;5075421;28;20036;-56
2021/05/25 07:29:27;;;;;;;16.15;10.52;;;;;;;;;;5075372;28;20029;-56
2021/05/25 07:31:53;;;;;;;26.58;14.70;;;;;;;;;;5075546;28;20464;-56
2021/05/25 07:34:19;;;;;;;11.90;5.95;;;;;;;;;;5075420;28;20479;-55
2021/05/25 07:36:48;;;;;;;40.42;22.67;;;;;;;;;;5075420;28;20021;-55
2021/05/25 07:39:15;;;;;;;38.30;25.00;;;;;;;;;;5075527;28;20074;-55
2021/05/25 07:41:42;;;;;;;68.93;40.25;;;;;;;;;;5075409;28;20020;-56
2021/05/25 07:44:08;;;;;;;19.05;10.60;;;;;;;;;;5075007;28;20029;-57
2021/05/25 07:46:34;;;;;;;104.15;65.30;;;;;;;;;;5075084;28;20028;-57
2021/05/25 07:49:00;;;;;;;13.63;6.95;;;;;;;;;;5075071;28;20059;-56
2021/05/25 07:51:29;;;;;;;56.05;30.75;;;;;;;;;;5074946;28;20415;-57
2021/05/25 07:53:55;;;;;;;12.52;8.95;;;;;;;;;;5075196;28;20032;-56
2021/05/25 07:56:21;;;;;;;11.57;4.63;;;;;;;;;;5074974;28;20074;-56
2021/05/25 07:58:47;;;;;;;6.55;4.35;;;;;;;;;;5074845;28;20047;-56
2021/05/25 08:01:13;;;;;;;15.50;5.85;;;;;;;;;;5075153;28;20419;-56
2021/05/25 08:03:39;;;;;;;12.23;6.35;;;;;;;;;;5074865;28;20021;-56
2021/05/25 08:06:06;;;;;;;23.45;13.35;;;;;;;;;;5074587;28;20090;-56
2021/05/25 08:08:32;;;;;;;9.82;4.78;;;;;;;;;;5075207;28;20495;-55
2021/05/25 08:10:59;;;;;;;14.40;4.35;;;;;;;;;;5074631;28;20032;-55
2021/05/25 08:13:28;;;;;;;14.80;5.35;;;;;;;;;;5074545;28;20021;-56
2021/05/25 08:15:55;;;;;;;13.15;5.28;;;;;;;;;;5074419;28;20131;-56
2021/05/25 08:21:11;;;;;;;;;;;;;;;;;;5012823;28;20468;-52
2021/05/25 08:23:38;;;;;;;26.48;15.32;;;;;;;;;;5012709;28;19909;-55
2021/05/25 08:26:05;;;;;;;38.05;19.92;;;;;;;;;;5012446;28;20462;-54
2021/05/25 08:28:33;;;;;;;51.50;31.52;;;;;;;;;;5012509;28;20068;-57
2021/05/25 08:31:00;;;;;;;20.60;11.43;;;;;;;;;;5012450;28;20030;-56
2021/05/25 08:33:26;;;;;;;60.42;11.43;;;;;;;;;;5012420;28;20034;-59
2021/05/25 08:35:52;;;;;;;49.08;31.45;;;;;;;;;;5012450;28;20038;-56
2021/05/25 08:38:21;;;;;;;21.25;10.15;;;;;;;;;;5012337;28;20074;-56
2021/05/25 08:40:47;;;;;;;26.85;17.35;;;;;;;;;;5012127;28;20030;-55
2021/05/25 08:43:13;;;;;;;39.97;27.42;;;;;;;;;;5012081;28;20410;-55
2021/05/25 08:45:40;;;;;;;52.83;32.72;;;;;;;;;;5012105;28;20049;-56
2021/05/25 08:48:06;;;;;;;34.22;17.58;;;;;;;;;;5012183;28;20018;-55
2021/05/25 08:50:32;;;;;;;23.40;12.88;;;;;;;;;;5011617;28;20449;-56
2021/05/25 08:53:02;;;;;;;21.50;11.20;;;;;;;;;;5012096;28;20120;-58
2021/05/25 08:55:29;;;;;;;29.10;16.83;;;;;;;;;;5012036;28;20081;-57
2021/05/25 08:57:56;;;;;;;21.88;13.00;;;;;;;;;;5036183;28;20037;-55
2021/05/25 09:00:25;;;;;;;33.60;18.48;;;;;;;;;;5073606;28;20060;-57
2021/05/25 09:02:51;;;;;;;30.35;19.85;;;;;;;;;;5073385;28;20024;-56
2021/05/25 09:05:21;;;;;;;22.95;11.57;;;;;;;;;;5073491;28;20503;-55
2021/05/25 09:07:47;;;;;;;35.60;23.60;;;;;;;;;;5073322;28;20032;-55
2021/05/25 09:10:33;;;;;;;61.95;39.38;;;;;;;;;;5073120;28;20017;-57
2021/05/25 09:13:00;;;;;;;37.90;22.92;;;;;;;;;;5073250;28;20067;-56
2021/05/25 09:15:37;;;;;;;58.95;35.90;;;;;;;;;;5073391;28;20104;-56
2021/05/25 09:18:04;;;;;;;106.63;50.08;;;;;;;;;;5073397;28;20476;-56
2021/05/25 09:20:44;;;;;;;33.47;13.70;;;;;;;;;;5073259;28;20025;-57
2021/05/25 09:23:11;;;;;;;55.22;14.10;;;;;;;;;;5073516;28;20040;-52
2021/05/25 09:25:46;;;;;;;80.35;24.10;;;;;;;;;;5073190;28;20045;-55
2021/05/25 09:28:14;;;;;;;329.25;58.28;;;;;;;;;;5073208;28;20066;-53
2021/05/25 09:30:42;;;;;;;336.52;70.47;;;;;;;;;;5072547;28;20426;-53
2021/05/25 09:33:09;;;;;;;65.95;14.60;;;;;;;;;;5073047;28;20481;-54
2021/05/25 09:35:40;;;;;;;82.70;17.52;;;;;;;;;;5073042;28;20064;-53
2021/05/25 09:38:13;;;;;;;76.57;20.05;;;;;;;;;;5073337;28;20028;-52
2021/05/25 09:40:41;;;;;;;148.50;81.93;;;;;;;;;;5073358;28;20021;-54
2021/05/25 09:43:14;;;;;;;45.47;19.90;;;;;;;;;;5073021;28;20052;-56
2021/05/25 09:46:13;;;;;;;99.10;60.33;;;;;;;;;;5072818;28;20037;-56
2021/05/25 09:48:42;;;;;;;;;;;;;;;;;;4991963;28;20035;-52
2021/05/25 09:51:26;;;;;;;49.33;15.38;;;;;;;;;;4991307;28;19925;-54
2021/05/25 09:53:53;;;;;;;57.55;30.60;;;;;;;;;;4991557;28;20283;-54
2021/05/25 09:56:28;;;;;;;32.20;10.77;;;;;;;;;;4991987;28;20356;-53
2021/05/25 09:58:55;;;;;;;33.20;12.60;;;;;;;;;;4991493;28;20065;-54
2021/05/25 10:01:31;;;;;;;21.00;7.50;;;;;;;;;;4991579;28;20026;-54
2021/05/25 10:03:57;;;;;;;26.85;9.18;;;;;;;;;;4991276;28;20037;-53
2021/05/25 10:06:25;;;;;;;24.75;11.60;;;;;;;;;;4991455;28;20038;-57
2021/05/25 10:08:52;;;;;;;16.42;6.90;;;;;;;;;;4991525;28;20034;-55
2021/05/25 10:11:19;;;;;;;42.45;19.98;;;;;;;;;;4991358;28;20074;-50
2021/05/25 10:13:46;;;;;;;15.18;5.38;;;;;;;;;;4991298;28;20027;-48
2021/05/25 10:16:13;;;;;;;23.95;9.25;;;;;;;;;;4991081;28;20065;-52
2021/05/25 10:21:13;;;;;;;27.42;14.13;;;;;;;;;;4991339;28;20038;-51
2021/05/25 10:23:42;;;;;;;36.13;22.38;;;;;;;;;;5011349;28;20346;-55
2021/05/25 10:26:09;;;;;;;97.70;66.00;;;;;;;;;;5072540;28;20033;-51
2021/05/25 10:28:39;;;;;;;17.67;10.02;;;;;;;;;;5072774;28;20094;-50
2021/05/25 10:31:24;;;;;;;21.58;12.27;;;;;;;;;;5071520;28;20082;-51
2021/05/25 10:34:10;;;;;;;60.10;19.45;;;;;;;;;;5052737;28;20480;-50
2021/05/25 10:36:43;;;;;;;56.78;23.35;;;;;;;;;;5066005;28;20055;-47
2021/05/25 10:39:09;;;;;;;24.42;8.27;;;;;;;;;;5071167;28;20035;-54
2021/05/25 10:41:36;;;;;;;24.55;12.07;;;;;;;;;;5071139;28;20021;-47
2021/05/25 10:44:03;;;;;;;23.85;9.50;;;;;;;;;;5074424;28;20024;-51
2021/05/25 10:46:30;;;;;;;18.60;5.65;;;;;;;;;;5074670;28;20074;-53
2021/05/25 10:49:09;;;;;;;19.33;7.22;;;;;;;;;;5074893;28;20024;-50
2021/05/25 10:51:45;;;;;;;18.40;4.60;;;;;;;;;;5072148;28;20055;-50
2021/05/25 10:54:29;;;;;;;16.40;3.95;;;;;;;;;;5074767;28;20024;-48
2021/05/25 10:56:56;;;;;;;17.95;5.32;;;;;;;;;;5072131;28;20020;-48
2021/05/25 10:59:22;;;;;;;17.67;10.73;;;;;;;;;;5074445;28;20016;-49
2021/05/25 11:01:55;;;;;;;21.90;10.25;;;;;;;;;;5075591;28;20039;-47
2021/05/25 11:04:34;;;;;;;23.15;9.20;;;;;;;;;;5076051;28;20055;-58
2021/05/25 11:07:00;;;;;;;55.22;33.90;;;;;;;;;;5055795;28;20049;-58
2021/05/25 11:09:29;;;;;;;100.68;71.10;;;;;;;;;;5055916;28;20017;-50
2021/05/25 11:12:11;;;;;;;34.30;19.20;;;;;;;;;;5055702;28;20032;-55
2021/05/25 11:14:37;;;;;;;25.52;14.52;;;;;;;;;;5055722;28;20032;-55
2021/05/25 11:17:26;;;;;;;90.47;61.25;;;;;;;;;;5055834;28;20035;-55
2021/05/25 11:20:09;;;;;;;18.45;13.00;;;;;;;;;;5047495;28;20116;-53
2021/05/25 11:22:36;;;;;;;41.83;26.58;;;;;;;;;;5055261;28;20113;-50
2021/05/25 11:25:05;;;;;;;35.78;21.88;;;;;;;;;;5055136;28;20023;-50
2021/05/25 11:27:34;;;;;;;23.20;14.20;;;;;;;;;;5055490;28;20021;-52
2021/05/25 11:30:04;;;;;;;34.67;23.17;;;;;;;;;;5055192;28;20025;-47
2021/05/25 11:32:31;;;;;;;93.10;62.60;;;;;;;;;;5055207;28;20025;-49
2021/05/25 11:34:57;;;;;;;49.33;32.13;;;;;;;;;;5059162;28;20025;-49
2021/05/25 11:37:24;;;;;;;37.78;21.10;;;;;;;;;;5075191;28;20025;-54
2021/05/25 11:39:50;;;;;;;257.27;208.07;;;;;;;;;;5075023;28;20111;-50
2021/05/25 11:42:21;;;;;;;74.78;48.47;;;;;;;;;;5075171;28;20028;-48
2021/05/25 11:44:48;;;;;;;33.17;19.17;;;;;;;;;;5075064;28;20109;-52
2021/05/25 11:47:15;;;;;;;163.50;86.50;;;;;;;;;;5074958;28;20036;-54
2021/05/25 11:49:42;;;;;;;91.05;60.78;;;;;;;;;;5075044;28;20048;-51
2021/05/25 11:52:23;;;;;;;92.55;60.97;;;;;;;;;;5074668;28;20496;-48
2021/05/25 11:54:50;;;;;;;39.03;24.35;;;;;;;;;;5073959;28;20056;-52
2021/05/25 11:57:26;;;;;;;24.35;10.00;;;;;;;;;;5074959;28;20024;-53
2021/05/25 11:59:52;;;;;;;16.95;11.15;;;;;;;;;;5074770;28;20149;-48
2021/05/25 12:02:28;;;;;;;102.97;65.07;;;;;;;;;;5074687;28;20028;-48
2021/05/25 12:05:01;;;;;;;44.63;27.13;;;;;;;;;;5074363;28;20021;-52
2021/05/25 12:07:27;;;;;;;26.65;15.38;;;;;;;;;;5074650;28;20510;-51
2021/05/25 12:09:54;;;;;;;63.20;49.80;;;;;;;;;;5074868;28;20024;-52
2021/05/25 12:12:25;;;;;;;30.55;18.80;;;;;;;;;;5074638;28;20024;-51
2021/05/25 12:14:51;;;;;;;47.33;33.60;;;;;;;;;;5074545;28;20017;-55
2021/05/25 12:17:21;;;;;;;28.45;19.80;;;;;;;;;;5074067;28;20101;-50
2021/05/25 12:19:58;;;;;;;43.47;30.33;;;;;;;;;;5074111;28;20028;-49
2021/05/25 12:22:35;;;;;;;52.17;32.85;;;;;;;;;;5074394;28;20036;-55
2021/05/25 12:25:14;;;;;;;177.10;120.40;;;;;;;;;;5074239;28;20217;-53
2021/05/25 12:27:41;;;;;;;55.72;35.95;;;;;;;;;;5074118;28;20495;-55
2021/05/25 12:30:08;;;;;;;49.10;33.40;;;;;;;;;;5074251;28;20031;-55
2021/05/25 12:32:34;;;;;;;61.65;39.92;;;;;;;;;;5074195;28;20511;-52
2021/05/25 12:35:00;;;;;;;31.60;18.08;;;;;;;;;;5074159;28;20024;-52
2021/05/25 12:37:27;;;;;;;24.33;14.38;;;;;;;;;;5074028;28;20330;-52
2021/05/25 12:40:04;;;;;;;25.80;11.38;;;;;;;;;;5074207;28;20403;-54
2021/05/25 12:42:37;;;;;;;27.55;14.05;;;;;;;;;;5073923;28;20461;-53
2021/05/25 12:45:14;;;;;;;11.00;4.70;;;;;;;;;;5073548;28;20108;-55
2021/05/25 12:47:49;;;;;;;8.10;3.78;;;;;;;;;;5073814;28;20021;-51
2021/05/25 12:50:16;;;;;;;29.17;18.40;;;;;;;;;;5073610;28;20483;-50
2021/05/25 12:52:42;;;;;;;12.73;8.32;;;;;;;;;;5073904;28;20488;-55
2021/05/25 12:55:08;;;;;;;35.17;20.38;;;;;;;;;;5073760;28;20066;-55
2021/05/25 12:57:44;;;;;;;34.25;18.90;;;;;;;;;;5073704;28;20021;-53
2021/05/25 13:00:12;;;;;;;17.55;9.38;;;;;;;;;;5073545;28;20437;-54
2021/05/25 13:02:40;;;;;;;17.45;11.02;;;;;;;;;;5073599;28;20107;-48
2021/05/25 13:05:07;;;;;;;19.38;5.47;;;;;;;;;;5073289;28;20514;-55
2021/05/25 13:07:59;;;;;;;14.55;9.00;;;;;;;;;;5073367;28;20111;-47
2021/05/25 13:10:26;;;;;;;10.98;5.75;;;;;;;;;;5073251;28;20101;-56
2021/05/25 13:12:53;;;;;;;15.52;7.10;;;;;;;;;;5073401;28;20031;-47
2021/05/25 13:15:19;;;;;;;10.48;5.40;;;;;;;;;;5072098;28;20020;-55
2021/05/25 13:17:51;;;;;;;12.32;4.03;;;;;;;;;;5072219;28;20141;-52
2021/05/25 13:20:23;;;;;;;22.35;5.15;;;;;;;;;;5069421;28;20039;-58
2021/05/25 13:22:49;;;;;;;19.95;4.97;;;;;;;;;;5072646;28;20415;-55
2021/05/25 13:25:16;;;;;;;13.85;5.07;;;;;;;;;;5072528;28;20016;-56
2021/05/25 13:27:50;;;;;;;16.75;4.60;;;;;;;;;;5072151;28;20024;-55
2021/05/25 13:30:16;;;;;;;13.82;7.18;;;;;;;;;;5069180;28;20052;-56
2021/05/25 13:32:43;;;;;;;60.47;43.17;;;;;;;;;;5071830;28;20016;-55
2021/05/25 13:35:10;;;;;;;66.97;48.28;;;;;;;;;;5071688;28;20544;-55
2021/05/25 13:37:37;;;;;;;81.00;55.45;;;;;;;;;;5073042;28;20028;-55
2021/05/25 13:40:07;;;;;;;37.40;23.15;;;;;;;;;;5071039;28;20024;-57
2021/05/25 13:42:33;;;;;;;13.13;6.88;;;;;;;;;;5053160;28;20025;-57
2021/05/25 13:44:59;;;;;;;66.72;32.30;;;;;;;;;;5052784;28;20029;-54
2021/05/25 13:47:27;;;;;;;80.13;35.30;;;;;;;;;;5056011;28;20064;-55
2021/05/25 13:49:53;;;;;;;55.33;29.05;;;;;;;;;;5072520;28;20107;-60
2021/05/25 13:52:20;;;;;;;80.43;34.58;;;;;;;;;;5072970;28;20082;-56
2021/05/25 13:54:46;;;;;;;22.35;13.63;;;;;;;;;;5072938;28;20380;-55
2021/05/25 13:57:18;;;;;;;47.50;25.80;;;;;;;;;;5072955;28;20029;-55
2021/05/25 14:02:12;;;;;;;19.88;12.10;;;;;;;;;;5072396;28;20111;-54
2021/05/25 14:04:38;;;;;;;19.05;11.75;;;;;;;;;;5072787;28;20036;-54
2021/05/25 14:07:11;;;;;;;24.25;14.32;;;;;;;;;;5071768;28;20090;-54
2021/05/25 14:09:37;;;;;;;12.00;7.47;;;;;;;;;;5072887;28;20021;-55
2021/05/25 14:12:03;;;;;;;13.18;8.60;;;;;;;;;;5072573;28;20070;-55
2021/05/25 14:14:29;;;;;;;15.77;9.60;;;;;;;;;;5072595;28;20085;-54
2021/05/25 14:16:55;;;;;;;9.68;5.28;;;;;;;;;;5072667;28;20517;-55
2021/05/25 14:19:21;;;;;;;16.48;6.10;;;;;;;;;;5076965;28;20379;-55
2021/05/25 14:21:48;;;;;;;12.68;5.15;;;;;;;;;;5076432;28;20127;-55
2021/05/25 14:24:16;;;;;;;13.80;5.95;;;;;;;;;;5076708;28;20036;-54
2021/05/25 14:26:42;;;;;;;16.10;5.70;;;;;;;;;;5076544;28;20513;-54
2021/05/25 14:29:09;;;;;;;8.38;4.90;;;;;;;;;;5076481;28;20483;-54
2021/05/25 14:31:36;;;;;;;11.85;4.38;;;;;;;;;;5058093;28;20028;-53
2021/05/25 14:34:02;;;;;;;7.72;4.35;;;;;;;;;;5076537;28;20046;-54
2021/05/25 14:36:28;;;;;;;10.85;4.57;;;;;;;;;;5056705;28;20107;-55
2021/05/25 14:38:54;;;;;;;12.00;4.22;;;;;;;;;;5056379;28;20465;-54